Terminal Aerodrome Forecast
Issued by NWS Cleveland, OH

Home | Current Version | Previous Version | Text Only | Print | Product List | Glossary Off
Versions: 1 2 3 4 5 6 7 8 9 10 11 12 13 14 15 16 17 18 19 20 21 22 23 24 25 26 27

000
FTUS41 KCLE 220836 AAA
TAFMFD
TAF AMD
KMFD 220836Z 2209/2306 04009KT P6SM -SNPL OVC040
      TEMPO 2209/2212 -FZRA OVC005
     FM221200 05009KT 3SM -RAPL OVC010
     FM221700 05010KT P6SM OVC007
     FM222300 05008KT P6SM OVC007=

USA.gov is the U.S. government's official web portal to all federal, state and local government web resources and services.